createdAt,value
2019-05-30T00:00:12.455Z,5.27
2019-05-30T00:02:29.671Z,4.20
2019-05-30T00:05:00.484Z,6.13
2019-05-30T00:07:31.146Z,4.67
2019-05-30T00:10:02.928Z,5.67
2019-05-30T00:12:33.652Z,5.10
2019-05-30T00:15:06.332Z,4.87
2019-05-30T00:17:36.909Z,5.27
2019-05-30T00:20:08.455Z,3.43
2019-05-30T00:22:39.092Z,6.57
2019-05-30T00:25:10.395Z,5.73
2019-05-30T00:27:42.144Z,4.57
2019-05-30T00:30:23.887Z,4.53
2019-05-30T00:32:45.359Z,4.30
2019-05-30T00:35:16.026Z,4.90
2019-05-30T00:37:46.706Z,9.20
2019-05-30T00:40:17.663Z,5.90
2019-05-30T00:42:48.825Z,5.63
2019-05-30T00:45:21.334Z,3.17
2019-05-30T00:47:52.079Z,6.37
2019-05-30T00:50:22.736Z,6.50
2019-05-30T00:52:53.953Z,6.33
2019-05-30T00:55:24.610Z,7.10
2019-05-30T00:57:56.679Z,6.67
2019-05-30T01:00:42.572Z,5.50
2019-05-30T01:03:02.824Z,5.13
2019-05-30T01:05:32.329Z,5.07
2019-05-30T01:08:03.327Z,5.60
2019-05-30T01:10:34.015Z,5.73
2019-05-30T01:13:05.219Z,4.57
2019-05-30T01:15:36.018Z,5.30
2019-05-30T01:18:07.350Z,6.57
2019-05-30T01:20:38.201Z,6.50
2019-05-30T01:23:09.061Z,3.50
2019-05-30T01:25:39.759Z,5.37
2019-05-30T01:28:10.424Z,11.00
2019-05-30T01:30:56.809Z,7.40
2019-05-30T01:33:14.499Z,5.70
2019-05-30T01:35:45.185Z,6.10
2019-05-30T01:38:15.811Z,2.70
2019-05-30T01:40:46.487Z,6.03
2019-05-30T01:43:17.198Z,4.03
2019-05-30T01:45:47.878Z,5.33
2019-05-30T01:48:18.523Z,5.43
2019-05-30T01:50:49.180Z,5.83
2019-05-30T01:53:19.874Z,7.87
2019-05-30T01:55:50.544Z,6.33
2019-05-30T01:58:21.273Z,5.37
2019-05-30T02:00:52.439Z,6.77
2019-05-30T02:03:23.099Z,7.53
2019-05-30T02:05:53.769Z,4.33
2019-05-30T02:08:24.415Z,11.80
2019-05-30T02:10:55.044Z,5.23
2019-05-30T02:13:25.873Z,4.90
2019-05-30T02:15:56.958Z,3.23
2019-05-30T02:18:27.650Z,5.23
2019-05-30T02:20:59.494Z,4.80
2019-05-30T02:23:30.293Z,6.60
2019-05-30T02:26:02.103Z,5.80
2019-05-30T02:28:32.890Z,4.83
2019-05-30T02:31:05.248Z,5.17
2019-05-30T02:33:36.242Z,3.53
2019-05-30T02:36:08.441Z,8.03
2019-05-30T02:38:39.578Z,7.07
2019-05-30T02:41:12.235Z,3.77
2019-05-30T02:43:42.712Z,7.27
2019-05-30T02:46:13.586Z,4.87
2019-05-30T02:48:58.015Z,9.77
2019-05-30T02:51:16.962Z,7.57
2019-05-30T02:53:47.599Z,6.53
2019-05-30T02:56:18.285Z,11.33
2019-05-30T02:58:48.923Z,7.40
2019-05-30T03:01:19.581Z,8.90
2019-05-30T03:03:51.063Z,5.47
2019-05-30T03:06:22.012Z,4.47
2019-05-30T03:08:53.346Z,4.37
2019-05-30T03:11:25.906Z,6.93
2019-05-30T03:13:56.572Z,4.67
2019-05-30T03:16:27.232Z,5.80
2019-05-30T03:18:58.232Z,6.77
2019-05-30T03:21:28.855Z,6.73
2019-05-30T03:23:59.510Z,7.00
2019-05-30T03:26:30.535Z,7.70
2019-05-30T03:29:02.748Z,6.10
2019-05-30T03:31:37.334Z,4.57
2019-05-30T03:34:16.526Z,10.73
2019-05-30T03:36:41.524Z,6.27
2019-05-30T03:39:14.539Z,6.03
2019-05-30T03:41:44.611Z,7.27
2019-05-30T03:44:15.955Z,8.13
2019-05-30T03:46:53.411Z,4.67
2019-05-30T03:49:29.044Z,9.93
2019-05-30T03:52:04.929Z,5.23
2019-05-30T03:54:38.624Z,6.47
2019-05-30T03:57:16.227Z,8.33
2019-05-30T03:59:58.711Z,4.87
2019-05-30T04:02:58.941Z,4.70
2019-05-30T04:05:39.535Z,6.73
2019-05-30T04:08:15.659Z,3.63
2019-05-30T04:10:49.506Z,4.67
2019-05-30T04:13:53.701Z,6.47
2019-05-30T04:16:24.392Z,3.33
2019-05-30T04:18:55.341Z,8.67
2019-05-30T04:21:26.799Z,5.33
2019-05-30T04:24:16.835Z,7.87
2019-05-30T04:26:47.595Z,7.80
2019-05-30T04:29:18.900Z,7.00
2019-05-30T04:31:49.828Z,8.83
2019-05-30T04:34:20.595Z,8.43
2019-05-30T04:36:53.423Z,8.57
2019-05-30T04:39:23.989Z,5.87
2019-05-30T04:41:54.919Z,6.77
2019-05-30T04:44:25.620Z,6.70
2019-05-30T04:46:56.659Z,5.57
2019-05-30T04:49:27.506Z,12.93
2019-05-30T04:52:00.509Z,8.87
2019-05-30T04:54:31.252Z,8.50
2019-05-30T04:57:14.770Z,6.80
2019-05-30T04:59:56.463Z,5.70
2019-05-30T05:02:38.478Z,8.00
2019-05-30T05:05:26.526Z,5.87
2019-05-30T05:07:52.951Z,4.73
2019-05-30T05:10:23.686Z,5.27
2019-05-30T05:12:54.431Z,5.33
2019-05-30T05:15:25.103Z,6.17
2019-05-30T05:17:55.776Z,3.50
2019-05-30T05:20:26.431Z,6.53
2019-05-30T05:22:57.453Z,3.70
2019-05-30T05:25:28.141Z,6.57
2019-05-30T05:27:59.962Z,5.57
2019-05-30T05:30:30.600Z,3.73
2019-05-30T05:33:01.796Z,3.67
2019-05-30T05:35:32.524Z,9.57
2019-05-30T05:38:03.432Z,4.70
2019-05-30T05:40:34.062Z,5.13
2019-05-30T05:43:05.353Z,4.47
2019-05-30T05:45:36.274Z,4.20
2019-05-30T05:48:07.128Z,5.03
2019-05-30T05:50:38.059Z,8.43
2019-05-30T05:53:08.945Z,2.80
2019-05-30T05:55:39.629Z,11.60
2019-05-30T05:58:10.477Z,3.13
2019-05-30T06:00:42.402Z,5.30
2019-05-30T06:03:13.175Z,3.43
2019-05-30T06:05:52.618Z,3.40
2019-05-30T06:08:17.257Z,2.63
2019-05-30T06:10:50.481Z,3.57
2019-05-30T06:13:21.347Z,2.93
2019-05-30T06:15:52.424Z,4.70
2019-05-30T06:18:24.205Z,4.77
2019-05-30T06:20:55.038Z,5.03
2019-05-30T06:23:25.786Z,3.53
2019-05-30T06:25:57.514Z,3.50
2019-05-30T06:28:28.333Z,4.97
2019-05-30T06:31:00.033Z,2.07
2019-05-30T06:33:30.754Z,3.00
2019-05-30T06:36:02.117Z,1.77
2019-05-30T06:38:34.083Z,4.40
2019-05-30T06:41:06.733Z,3.57
2019-05-30T06:43:37.457Z,6.27
2019-05-30T06:46:08.245Z,7.70
2019-05-30T06:48:39.469Z,5.43
2019-05-30T06:51:10.177Z,3.30
2019-05-30T06:53:41.009Z,5.13
2019-05-30T06:56:11.705Z,5.70
2019-05-30T06:58:48.768Z,10.13
2019-05-30T07:01:15.232Z,2.83
2019-05-30T07:03:46.188Z,6.03
2019-05-30T07:06:17.377Z,2.80
2019-05-30T07:08:48.302Z,3.67
2019-05-30T07:11:18.935Z,4.83
2019-05-30T07:13:49.648Z,7.33
2019-05-30T07:16:20.298Z,3.40
2019-05-30T07:18:51.045Z,3.27
2019-05-30T07:21:23.488Z,3.03
2019-05-30T07:23:54.390Z,3.57
2019-05-30T07:26:25.637Z,3.23
2019-05-30T07:28:56.572Z,6.47
2019-05-30T07:31:28.058Z,5.97
2019-05-30T07:33:59.073Z,7.00
2019-05-30T07:36:30.343Z,4.77
2019-05-30T07:39:01.165Z,5.90
2019-05-30T07:41:33.263Z,4.83
2019-05-30T07:44:04.241Z,3.60
2019-05-30T07:46:35.169Z,4.80
2019-05-30T07:49:12.502Z,5.43
2019-05-30T07:51:43.636Z,4.23
2019-05-30T07:54:14.320Z,2.10
2019-05-30T07:56:44.960Z,5.33
2019-05-30T07:59:15.596Z,4.00
2019-05-30T08:01:46.347Z,5.13
2019-05-30T08:04:17.008Z,4.73
2019-05-30T08:06:47.857Z,3.03
2019-05-30T08:09:18.581Z,3.83
2019-05-30T08:11:49.280Z,4.77
2019-05-30T08:14:20.125Z,5.00
2019-05-30T08:16:50.887Z,2.90
2019-05-30T08:19:21.614Z,2.30
2019-05-30T08:21:52.332Z,1.60
2019-05-30T08:24:23.193Z,2.33
2019-05-30T08:26:54.104Z,2.93
2019-05-30T08:29:24.804Z,3.40
2019-05-30T08:31:55.441Z,3.13
2019-05-30T08:34:26.154Z,2.70
2019-05-30T08:36:56.954Z,1.97
2019-05-30T08:39:28.889Z,1.80
2019-05-30T08:41:59.659Z,3.67
2019-05-30T08:44:31.558Z,2.70
2019-05-30T08:47:08.595Z,2.23
2019-05-30T08:49:40.397Z,4.00
2019-05-30T08:52:12.622Z,1.83
2019-05-30T08:54:44.266Z,2.37
2019-05-30T08:57:14.947Z,2.70
2019-05-30T08:59:45.802Z,1.53
2019-05-30T09:02:16.547Z,2.00
2019-05-30T09:04:47.289Z,4.03
2019-05-30T09:07:17.969Z,1.50
2019-05-30T09:09:48.642Z,3.53
2019-05-30T09:12:20.908Z,5.77
2019-05-30T09:14:51.575Z,4.67
2019-05-30T09:17:22.343Z,3.13
2019-05-30T09:19:53.417Z,3.40
2019-05-30T09:22:25.510Z,2.10
2019-05-30T09:24:56.225Z,1.50
2019-05-30T09:27:27.044Z,4.23
2019-05-30T09:29:57.778Z,2.63
2019-05-30T09:32:28.419Z,3.20
2019-05-30T09:34:59.423Z,2.30
2019-05-30T09:37:30.109Z,1.43
2019-05-30T09:40:01.701Z,3.27
2019-05-30T09:42:32.371Z,1.70
2019-05-30T09:45:03.241Z,4.93
2019-05-30T09:47:34.043Z,4.10
2019-05-30T09:50:05.602Z,1.60
2019-05-30T09:52:36.573Z,2.13
2019-05-30T09:55:09.735Z,2.17
2019-05-30T09:57:43.008Z,3.60
2019-05-30T10:00:17.748Z,3.77
2019-05-30T10:02:48.778Z,2.00
2019-05-30T10:05:24.466Z,1.67
2019-05-30T10:07:53.941Z,2.20
2019-05-30T10:10:25.045Z,3.50
2019-05-30T10:13:15.107Z,2.27
2019-05-30T10:15:50.514Z,3.70
2019-05-30T10:18:22.009Z,2.43
2019-05-30T10:20:53.635Z,4.70
2019-05-30T10:23:24.543Z,4.97
2019-05-30T10:25:55.309Z,2.27
2019-05-30T10:28:26.021Z,2.30
2019-05-30T10:30:59.205Z,1.60
2019-05-30T10:33:29.171Z,1.97
2019-05-30T10:35:59.863Z,3.00
2019-05-30T10:38:30.662Z,1.43
2019-05-30T10:41:01.324Z,1.20
2019-05-30T10:43:31.987Z,1.23
2019-05-30T10:46:03.255Z,2.67
2019-05-30T10:48:34.079Z,1.93
2019-05-30T10:51:04.790Z,1.90
2019-05-30T10:53:37.592Z,2.37
2019-05-30T10:56:08.094Z,4.07
2019-05-30T10:58:39.106Z,6.20
2019-05-30T11:01:09.896Z,6.90
2019-05-30T11:03:41.939Z,1.70
2019-05-30T11:07:01.293Z,7.10
2019-05-30T11:09:22.348Z,2.00
2019-05-30T11:11:53.056Z,5.10
2019-05-30T11:14:23.893Z,1.67
2019-05-30T11:16:55.509Z,3.00
2019-05-30T11:19:26.424Z,5.57
2019-05-30T11:21:58.163Z,2.13
2019-05-30T11:24:34.552Z,2.40
2019-05-30T11:27:05.504Z,1.67
2019-05-30T11:29:36.723Z,2.40
2019-05-30T11:32:07.909Z,2.50
2019-05-30T11:34:38.643Z,2.20
2019-05-30T11:37:18.592Z,2.40
2019-05-30T11:39:43.031Z,2.10
2019-05-30T11:42:13.800Z,1.63
2019-05-30T11:44:44.489Z,2.93
2019-05-30T11:47:18.464Z,4.67
2019-05-30T11:49:49.594Z,2.10
2019-05-30T11:52:20.520Z,2.33
2019-05-30T11:54:52.016Z,2.23
2019-05-30T11:57:22.968Z,1.20
2019-05-30T11:59:54.219Z,2.10
2019-05-30T12:02:25.096Z,2.27
2019-05-30T12:04:56.574Z,1.63
2019-05-30T12:07:36.198Z,2.57
2019-05-30T12:10:01.504Z,3.83
2019-05-30T12:12:32.197Z,2.63
2019-05-30T12:15:02.864Z,4.37
2019-05-30T12:17:33.667Z,2.37
2019-05-30T12:20:06.449Z,2.50
2019-05-30T12:22:37.760Z,1.93
2019-05-30T12:25:09.445Z,2.87
2019-05-30T12:27:41.161Z,7.73
2019-05-30T12:30:13.543Z,2.53
2019-05-30T12:32:44.319Z,2.47
2019-05-30T12:35:17.053Z,3.03
2019-05-30T12:37:54.798Z,2.60
2019-05-30T12:40:21.702Z,1.57
2019-05-30T12:42:55.529Z,1.87
2019-05-30T12:45:27.072Z,1.73
2019-05-30T12:47:57.788Z,2.03
2019-05-30T12:50:28.446Z,3.20
2019-05-30T12:53:00.478Z,2.53
2019-05-30T12:55:36.948Z,2.73
2019-05-30T12:58:07.192Z,2.80
2019-05-30T13:00:40.461Z,2.77
2019-05-30T13:03:11.237Z,1.63
2019-05-30T13:05:41.912Z,1.33
2019-05-30T13:08:21.233Z,1.47
2019-05-30T13:10:45.023Z,3.13
2019-05-30T13:13:15.768Z,5.70
2019-05-30T13:15:46.428Z,3.00
2019-05-30T13:18:17.444Z,2.40
2019-05-30T13:20:48.269Z,4.20
2019-05-30T13:23:18.971Z,3.90
2019-05-30T13:25:49.656Z,2.37
2019-05-30T13:28:20.309Z,2.03
2019-05-30T13:30:51.093Z,6.43
2019-05-30T13:33:22.045Z,1.53
2019-05-30T13:35:52.735Z,1.93
2019-05-30T13:38:26.796Z,2.03
2019-05-30T13:40:57.364Z,3.33
2019-05-30T13:43:28.347Z,2.00
2019-05-30T13:46:00.195Z,4.53
2019-05-30T13:48:30.957Z,2.00
2019-05-30T13:51:02.687Z,1.80
2019-05-30T13:53:33.487Z,2.03
2019-05-30T13:56:05.413Z,4.10
2019-05-30T13:58:36.145Z,2.57
2019-05-30T14:01:11.530Z,2.47
2019-05-30T14:03:40.292Z,2.57
2019-05-30T14:06:11.332Z,5.10
2019-05-30T14:08:43.126Z,2.17
2019-05-30T14:11:13.858Z,2.73
2019-05-30T14:13:44.573Z,1.93
2019-05-30T14:16:21.276Z,3.67
2019-05-30T14:18:56.539Z,3.70
2019-05-30T14:21:31.671Z,2.13
2019-05-30T14:24:14.303Z,2.53
2019-05-30T14:26:54.241Z,1.70
2019-05-30T14:29:33.713Z,2.60
2019-05-30T14:32:16.149Z,2.17
2019-05-30T14:34:57.390Z,2.70
2019-05-30T14:37:38.009Z,3.27
2019-05-30T14:40:11.116Z,2.33
2019-05-30T14:42:43.757Z,2.97
2019-05-30T14:45:16.917Z,4.70
2019-05-30T14:47:48.039Z,6.30
2019-05-30T14:50:19.963Z,2.90
2019-05-30T14:52:50.713Z,1.90
2019-05-30T14:55:21.606Z,1.43
2019-05-30T14:57:52.333Z,1.10
2019-05-30T15:00:24.023Z,1.80
2019-05-30T15:02:54.767Z,1.97
2019-05-30T15:05:25.443Z,2.37
2019-05-30T15:07:56.271Z,5.20
2019-05-30T15:10:27.052Z,2.23
2019-05-30T15:12:57.817Z,3.07
2019-05-30T15:15:28.731Z,2.97
2019-05-30T15:17:59.510Z,1.50
2019-05-30T15:20:30.563Z,1.67
2019-05-30T15:23:01.235Z,3.83
2019-05-30T15:25:32.439Z,2.00
2019-05-30T15:28:05.894Z,2.13
2019-05-30T15:30:36.735Z,3.40
2019-05-30T15:33:08.285Z,2.53
2019-05-30T15:35:39.006Z,1.27
2019-05-30T15:38:10.609Z,3.87
2019-05-30T15:40:41.560Z,6.10
2019-05-30T15:43:13.369Z,3.50
2019-05-30T15:45:44.391Z,2.50
2019-05-30T15:48:16.301Z,2.53
2019-05-30T15:50:47.085Z,1.30
2019-05-30T15:53:19.190Z,2.90
2019-05-30T15:55:50.069Z,3.43
2019-05-30T15:58:20.795Z,2.87
2019-05-30T16:00:51.484Z,2.57
2019-05-30T16:03:22.324Z,2.77
2019-05-30T16:05:52.996Z,4.03
2019-05-30T16:08:23.720Z,4.27
2019-05-30T16:10:54.408Z,4.57
2019-05-30T16:13:25.803Z,4.23
2019-05-30T16:15:57.244Z,5.10
2019-05-30T16:18:28.808Z,2.90
2019-05-30T16:21:00.143Z,3.83
2019-05-30T16:23:37.110Z,3.90
2019-05-30T16:26:09.702Z,2.70
2019-05-30T16:28:41.320Z,3.43
2019-05-30T16:31:13.768Z,2.67
2019-05-30T16:33:47.209Z,2.17
2019-05-30T16:36:22.576Z,2.93
2019-05-30T16:38:54.037Z,4.40
2019-05-30T16:41:28.883Z,5.37
2019-05-30T16:44:00.334Z,3.57
2019-05-30T16:46:34.417Z,2.67
2019-05-30T16:49:06.078Z,2.67
2019-05-30T16:51:39.589Z,5.20
2019-05-30T16:54:12.470Z,3.07
2019-05-30T16:56:47.318Z,3.27
2019-05-30T16:59:19.054Z,2.47
2019-05-30T17:01:57.885Z,3.80
2019-05-30T17:04:25.120Z,4.07
2019-05-30T17:06:56.566Z,3.23
2019-05-30T17:09:28.766Z,4.87
2019-05-30T17:12:00.617Z,4.77
2019-05-30T17:14:32.414Z,3.07
2019-05-30T17:17:03.240Z,3.73
2019-05-30T17:19:34.520Z,3.27
2019-05-30T17:22:05.597Z,3.00
2019-05-30T17:24:39.515Z,2.40
2019-05-30T17:27:10.123Z,4.00
2019-05-30T17:29:41.366Z,2.90
2019-05-30T17:32:12.862Z,3.27
2019-05-30T17:34:43.589Z,3.83
2019-05-30T17:37:14.464Z,3.53
2019-05-30T17:39:45.433Z,5.97
2019-05-30T17:42:16.318Z,4.33
2019-05-30T17:44:47.186Z,3.30
2019-05-30T17:47:21.406Z,3.23
2019-05-30T17:49:57.462Z,4.13
2019-05-30T17:52:33.789Z,3.77
2019-05-30T17:55:06.039Z,4.63
2019-05-30T17:57:39.794Z,4.80
2019-05-30T18:00:16.473Z,6.57
2019-05-30T18:02:50.024Z,6.77
2019-05-30T18:05:24.609Z,6.40
2019-05-30T18:07:58.879Z,8.00
2019-05-30T18:10:32.173Z,7.70
2019-05-30T18:13:06.720Z,10.23
2019-05-30T18:15:39.712Z,8.07
2019-05-30T18:18:10.767Z,8.07
2019-05-30T18:20:48.566Z,9.40
2019-05-30T18:23:15.509Z,10.33
2019-05-30T18:25:46.709Z,14.37
2019-05-30T18:28:18.589Z,14.97
2019-05-30T18:30:50.164Z,17.03
2019-05-30T18:33:22.119Z,11.97
2019-05-30T18:36:00.214Z,9.03
2019-05-30T18:38:32.702Z,8.13
2019-05-30T18:41:11.392Z,11.17
2019-05-30T18:43:36.640Z,7.23
2019-05-30T18:46:07.919Z,7.07
2019-05-30T18:48:39.464Z,6.27
2019-05-30T18:51:11.012Z,9.63
2019-05-30T18:53:42.860Z,10.77
2019-05-30T18:56:14.444Z,8.83
2019-05-30T18:58:45.969Z,8.67
2019-05-30T19:01:17.188Z,9.10
2019-05-30T19:03:49.760Z,9.93
2019-05-30T19:06:21.037Z,9.90
2019-05-30T19:08:52.299Z,4.67
2019-05-30T19:11:29.643Z,6.33
2019-05-30T19:13:57.908Z,5.90
2019-05-30T19:16:32.416Z,3.60
2019-05-30T19:19:13.050Z,5.00
2019-05-30T19:21:50.064Z,3.40
2019-05-30T19:24:28.488Z,4.50
2019-05-30T19:27:00.557Z,4.43
2019-05-30T19:29:32.875Z,4.07
2019-05-30T19:32:04.926Z,11.93
2019-05-30T19:34:37.010Z,7.67
2019-05-30T19:37:11.984Z,7.73
2019-05-30T19:39:44.163Z,7.53
2019-05-30T19:42:20.658Z,8.00
2019-05-30T19:44:55.059Z,11.63
2019-05-30T19:47:28.635Z,10.83
2019-05-30T19:50:02.523Z,9.00
2019-05-30T19:52:35.088Z,12.27
2019-05-30T19:55:07.098Z,8.07
2019-05-30T19:57:47.821Z,7.00
2019-05-30T20:00:24.632Z,7.63
2019-05-30T20:03:00.000Z,6.00
2019-05-30T20:05:36.657Z,6.73
2019-05-30T20:08:14.410Z,6.17
2019-05-30T20:10:49.006Z,13.07
2019-05-30T20:13:27.041Z,24.53
2019-05-30T20:16:00.712Z,15.90
2019-05-30T20:18:37.696Z,16.40
2019-05-30T20:21:13.023Z,8.63
2019-05-30T20:23:56.482Z,6.03
2019-05-30T20:26:27.152Z,9.70
2019-05-30T20:29:00.926Z,9.57
2019-05-30T20:31:39.382Z,8.27
2019-05-30T20:34:14.414Z,8.77
2019-05-30T20:36:51.431Z,4.60
2019-05-30T20:39:27.653Z,6.03
2019-05-30T20:42:15.924Z,6.00
2019-05-30T20:44:47.098Z,7.40
2019-05-30T20:47:24.506Z,6.53
2019-05-30T20:50:02.114Z,4.27
2019-05-30T20:52:43.123Z,7.37
2019-05-30T20:55:21.853Z,4.07
2019-05-30T20:57:54.011Z,3.83
2019-05-30T21:00:43.882Z,6.13
2019-05-30T21:03:19.351Z,5.50
2019-05-30T21:05:56.033Z,6.90
2019-05-30T21:08:29.476Z,6.97
2019-05-30T21:13:40.235Z,8.47
2019-05-30T21:16:17.166Z,6.67
2019-05-30T21:18:54.734Z,9.53
2019-05-30T21:21:28.294Z,18.47
2019-05-30T21:24:01.346Z,15.07
2019-05-30T21:26:36.671Z,16.10
2019-05-30T21:29:08.439Z,17.00
2019-05-30T21:31:41.309Z,30.37
2019-05-30T21:34:13.143Z,30.20
2019-05-30T21:36:46.005Z,22.40
2019-05-30T21:39:17.791Z,17.83
2019-05-30T21:41:49.889Z,12.03
2019-05-30T21:44:21.286Z,13.13
2019-05-30T21:46:55.386Z,13.07
2019-05-30T21:49:27.323Z,10.27
2019-05-30T21:51:57.983Z,9.30
2019-05-30T21:54:28.738Z,11.70
2019-05-30T21:56:59.521Z,5.73
2019-05-30T21:59:30.256Z,4.80
2019-05-30T22:02:00.919Z,8.57
2019-05-30T22:04:31.611Z,7.43
2019-05-30T22:07:02.596Z,8.47
2019-05-30T22:09:33.306Z,5.60
2019-05-30T22:12:04.038Z,4.93
2019-05-30T22:14:34.686Z,6.73
2019-05-30T22:17:17.545Z,7.10
2019-05-30T22:19:50.032Z,4.87
2019-05-30T22:22:20.822Z,6.60
2019-05-30T22:24:52.361Z,6.10
2019-05-30T22:27:23.381Z,5.07
2019-05-30T22:29:54.030Z,4.97
2019-05-30T22:32:24.724Z,5.47
2019-05-30T22:34:55.365Z,8.47
2019-05-30T22:37:26.034Z,13.60
2019-05-30T22:39:56.819Z,9.10
2019-05-30T22:42:27.511Z,8.03
2019-05-30T22:44:58.212Z,8.33
2019-05-30T22:47:28.872Z,10.20
2019-05-30T22:49:59.553Z,8.43
2019-05-30T22:52:30.227Z,7.80
2019-05-30T22:55:01.017Z,10.70
2019-05-30T22:57:31.658Z,8.63
2019-05-30T23:00:02.418Z,7.07
2019-05-30T23:02:33.098Z,6.73
2019-05-30T23:05:03.827Z,6.93
2019-05-30T23:07:34.557Z,5.83
2019-05-30T23:10:06.380Z,5.87
2019-05-30T23:12:37.297Z,6.33
2019-05-30T23:15:08.151Z,4.57
2019-05-30T23:17:38.857Z,5.33
2019-05-30T23:20:09.819Z,3.13
2019-05-30T23:22:40.460Z,3.33
2019-05-30T23:25:12.018Z,3.17
2019-05-30T23:27:43.100Z,4.40
2019-05-30T23:30:13.863Z,4.30
2019-05-30T23:32:44.528Z,4.33
2019-05-30T23:35:15.235Z,2.60
2019-05-30T23:37:45.899Z,7.97
2019-05-30T23:40:16.767Z,3.70
2019-05-30T23:42:47.426Z,3.20
2019-05-30T23:45:18.092Z,4.93
2019-05-30T23:47:49.470Z,3.37
2019-05-30T23:50:20.494Z,3.20
2019-05-30T23:52:52.079Z,4.30
2019-05-30T23:55:22.788Z,2.43
2019-05-30T23:57:54.618Z,3.57
